Terminal Aerodrome Forecast
Issued by NWS

Home | Current Version | Previous Version | Text Only | Print | Product List | Glossary On
Versions: 1 2 3 4 5 6 7 8 9 10 11 12 13 14 15 16 17 18 19
000
FTUS42 KFFC 010535
TAFPDK
TAF
KPDK 010535Z 0106/0206 10006KT P6SM BKN025
     FM010800 09006KT 6SM -RA BKN008
     FM011000 08006KT 2SM -RADZ OVC004
     FM011500 08006KT 4SM -RADZ OVC007
     FM012100 08005KT 6SM BR BKN012
     FM020300 00000KT 2SM -DZ OVC008=

USA.gov is the U.S. government's official web portal to all federal, state and local government web resources and services.